createdAt,value
2022-11-09T00:01:31.069Z,15.90
2022-11-09T00:04:01.607Z,15.90
2022-11-09T00:06:30.659Z,16.10
2022-11-09T00:09:04.101Z,16.60
2022-11-09T00:11:37.800Z,16.10
2022-11-09T00:14:06.530Z,16.00
2022-11-09T00:16:34.801Z,16.10
2022-11-09T00:19:03.044Z,16.10
2022-11-09T00:21:31.332Z,16.20
2022-11-09T00:23:59.528Z,16.20
2022-11-09T00:26:28.048Z,15.90
2022-11-09T00:28:57.714Z,16.00
2022-11-09T00:31:26.688Z,15.90
2022-11-09T00:33:57.274Z,16.10
2022-11-09T00:36:29.874Z,16.20
2022-11-09T00:39:00.628Z,16.40
2022-11-09T00:41:29.470Z,16.10
2022-11-09T00:43:59.080Z,16.00
2022-11-09T00:46:27.625Z,16.20
2022-11-09T00:48:56.962Z,16.40
2022-11-09T00:51:25.928Z,16.70
2022-11-09T00:53:55.450Z,17.00
2022-11-09T00:56:24.444Z,16.70
2022-11-09T00:58:55.970Z,16.40
2022-11-09T01:01:26.030Z,16.50
2022-11-09T01:03:54.803Z,16.40
2022-11-09T01:06:25.816Z,16.20
2022-11-09T01:08:54.487Z,16.70
2022-11-09T01:11:23.909Z,16.70
2022-11-09T01:13:52.267Z,17.20
2022-11-09T01:16:24.324Z,16.60
2022-11-09T01:18:56.579Z,16.50
2022-11-09T01:21:25.040Z,16.40
2022-11-09T01:23:53.419Z,16.40
2022-11-09T01:26:22.329Z,16.20
2022-11-09T01:28:50.602Z,16.50
2022-11-09T01:31:21.266Z,16.60
2022-11-09T01:33:50.069Z,16.40
2022-11-09T01:36:23.617Z,16.20
2022-11-09T01:38:52.516Z,16.30
2022-11-09T01:41:23.955Z,16.20
2022-11-09T01:44:15.267Z,16.40
2022-11-09T01:46:52.893Z,16.60
2022-11-09T01:49:33.620Z,16.50
2022-11-09T01:52:09.155Z,16.70
2022-11-09T01:54:42.173Z,16.10
2022-11-09T01:57:16.909Z,16.10
2022-11-09T01:59:52.131Z,16.00
2022-11-09T02:02:20.875Z,16.10
2022-11-09T02:04:55.476Z,16.60
2022-11-09T02:07:25.482Z,16.10
2022-11-09T02:10:01.919Z,16.20
2022-11-09T02:12:32.409Z,16.30
2022-11-09T02:15:04.751Z,16.50
2022-11-09T02:17:33.645Z,16.60
2022-11-09T02:20:03.711Z,16.50
2022-11-09T02:22:34.588Z,16.30
2022-11-09T02:25:03.800Z,15.90
2022-11-09T02:27:32.636Z,15.50
2022-11-09T02:30:01.755Z,15.40
2022-11-09T02:32:31.560Z,15.60
2022-11-09T02:34:59.919Z,16.00
2022-11-09T02:37:30.164Z,15.80
2022-11-09T02:40:02.221Z,15.60
2022-11-09T02:42:30.949Z,15.80
2022-11-09T02:45:00.974Z,15.60
2022-11-09T02:47:29.372Z,15.80
2022-11-09T02:49:58.428Z,16.20
2022-11-09T02:52:26.767Z,16.10
2022-11-09T02:54:55.096Z,16.10
2022-11-09T02:57:24.741Z,16.70
2022-11-09T02:59:53.016Z,16.60
2022-11-09T03:02:21.270Z,17.00
2022-11-09T03:04:49.504Z,16.80
2022-11-09T03:07:17.796Z,17.20
2022-11-09T03:09:46.549Z,16.70
2022-11-09T03:12:32.865Z,16.70
2022-11-09T03:15:07.620Z,16.20
2022-11-09T03:17:36.429Z,16.90
2022-11-09T03:20:05.383Z,17.30
2022-11-09T03:22:33.848Z,17.60
2022-11-09T03:25:02.059Z,17.70
2022-11-09T03:27:30.256Z,17.40
2022-11-09T03:29:58.480Z,16.20
2022-11-09T03:32:28.021Z,16.90
2022-11-09T03:34:56.922Z,17.40
2022-11-09T03:37:25.184Z,16.50
2022-11-09T03:39:53.467Z,17.30
2022-11-09T03:42:21.666Z,17.90
2022-11-09T03:44:49.894Z,17.80
2022-11-09T03:47:18.129Z,18.10
2022-11-09T03:49:47.727Z,18.00
2022-11-09T03:52:15.910Z,18.20
2022-11-09T03:54:44.178Z,17.60
2022-11-09T03:57:12.412Z,17.40
2022-11-09T03:59:40.664Z,17.70
2022-11-09T04:02:09.123Z,17.70
2022-11-09T04:04:37.391Z,17.10
2022-11-09T04:07:07.103Z,16.50
2022-11-09T04:09:35.416Z,16.70
2022-11-09T04:12:04.168Z,16.50
2022-11-09T04:14:32.630Z,17.00
2022-11-09T04:17:01.004Z,17.50
2022-11-09T04:19:29.244Z,17.20
2022-11-09T04:21:57.496Z,17.50
2022-11-09T04:24:27.132Z,17.40
2022-11-09T04:26:55.475Z,17.10
2022-11-09T04:29:23.757Z,16.80
2022-11-09T04:31:52.728Z,16.40
2022-11-09T04:34:20.956Z,16.80
2022-11-09T04:36:49.272Z,16.60
2022-11-09T04:39:17.900Z,16.10
2022-11-09T04:41:47.517Z,16.20
2022-11-09T04:44:15.795Z,16.70
2022-11-09T04:46:44.076Z,17.20
2022-11-09T04:49:12.352Z,17.10
2022-11-09T04:51:40.653Z,16.80
2022-11-09T04:54:08.919Z,17.40
2022-11-09T04:56:37.160Z,16.90
2022-11-09T04:59:06.775Z,16.00
2022-11-09T05:01:35.068Z,16.20
2022-11-09T05:04:03.335Z,16.80
2022-11-09T05:06:34.792Z,16.90
2022-11-09T05:09:06.865Z,17.00
2022-11-09T05:11:36.623Z,16.70
2022-11-09T05:14:06.693Z,16.90
2022-11-09T05:16:35.054Z,15.90
2022-11-09T05:19:03.668Z,15.70
2022-11-09T05:21:31.929Z,16.40
2022-11-09T05:23:59.223Z,17.20
2022-11-09T05:26:30.233Z,17.00
2022-11-09T05:28:59.126Z,16.90
2022-11-09T05:31:29.686Z,16.80
2022-11-09T05:33:59.370Z,17.30
2022-11-09T05:36:28.886Z,16.90
2022-11-09T05:38:57.328Z,16.40
2022-11-09T05:41:25.776Z,15.50
2022-11-09T05:43:54.450Z,15.90
2022-11-09T05:46:22.736Z,15.90
2022-11-09T05:48:52.329Z,15.80
2022-11-09T05:51:20.567Z,16.50
2022-11-09T05:53:48.814Z,15.60
2022-11-09T05:56:17.171Z,16.20
2022-11-09T05:58:45.405Z,16.20
2022-11-09T06:01:16.000Z,16.10
2022-11-09T06:03:44.665Z,16.70
2022-11-09T06:06:17.145Z,17.30
2022-11-09T06:08:45.369Z,17.10
2022-11-09T06:11:21.757Z,17.50
2022-11-09T06:13:51.818Z,17.80
2022-11-09T06:16:20.096Z,17.90
2022-11-09T06:18:48.339Z,18.20
2022-11-09T06:21:18.070Z,18.30
2022-11-09T06:23:46.288Z,18.10
2022-11-09T06:26:15.487Z,17.50
2022-11-09T06:28:44.095Z,17.70
2022-11-09T06:31:15.468Z,17.70
2022-11-09T06:33:43.784Z,17.80
2022-11-09T06:36:12.949Z,17.30
2022-11-09T06:38:42.983Z,17.60
2022-11-09T06:41:11.754Z,17.60
2022-11-09T06:43:39.982Z,17.80
2022-11-09T06:46:10.896Z,17.60
2022-11-09T06:48:39.559Z,17.00
2022-11-09T06:51:08.481Z,17.20
2022-11-09T06:53:38.006Z,16.50
2022-11-09T06:56:09.209Z,16.90
2022-11-09T06:58:38.256Z,17.30
2022-11-09T07:01:11.108Z,16.80
2022-11-09T07:03:40.697Z,16.50
2022-11-09T07:06:11.367Z,16.10
2022-11-09T07:08:40.005Z,16.20
2022-11-09T07:11:12.617Z,16.40
2022-11-09T07:13:41.264Z,15.60
2022-11-09T07:16:12.076Z,15.80
2022-11-09T07:18:40.394Z,16.10
2022-11-09T07:21:12.989Z,16.60
2022-11-09T07:23:43.166Z,16.30
2022-11-09T07:26:12.920Z,16.60
2022-11-09T07:28:41.309Z,16.30
2022-11-09T07:31:10.155Z,17.00
2022-11-09T07:33:38.504Z,17.50
2022-11-09T07:36:07.960Z,17.10
2022-11-09T07:38:36.879Z,16.10
2022-11-09T07:41:05.221Z,16.40
2022-11-09T07:43:34.813Z,17.10
2022-11-09T07:46:06.001Z,17.20
2022-11-09T07:48:34.298Z,17.10
2022-11-09T07:51:03.088Z,16.70
2022-11-09T07:53:31.921Z,17.00
2022-11-09T07:56:02.031Z,16.60
2022-11-09T07:58:31.003Z,16.90
2022-11-09T08:01:01.136Z,17.40
2022-11-09T08:03:29.499Z,16.30
2022-11-09T08:05:58.951Z,16.30
2022-11-09T08:08:27.238Z,16.20
2022-11-09T08:10:58.584Z,16.20
2022-11-09T08:13:27.013Z,16.40
2022-11-09T08:15:55.317Z,15.80
2022-11-09T08:18:25.303Z,16.50
2022-11-09T08:20:53.580Z,16.80
2022-11-09T08:23:23.032Z,16.70
2022-11-09T08:25:52.161Z,17.20
2022-11-09T08:28:20.873Z,15.80
2022-11-09T08:30:57.669Z,15.60
2022-11-09T08:33:28.220Z,15.40
2022-11-09T08:35:56.772Z,15.50
2022-11-09T08:38:25.058Z,15.90
2022-11-09T08:40:58.873Z,15.50
2022-11-09T08:43:27.944Z,16.50
2022-11-09T08:45:56.387Z,16.40
2022-11-09T08:48:26.080Z,16.20
2022-11-09T08:50:55.928Z,15.60
2022-11-09T08:53:25.293Z,16.20
2022-11-09T08:55:53.948Z,16.50
2022-11-09T08:58:23.260Z,15.80
2022-11-09T09:00:51.689Z,16.10
2022-11-09T09:03:19.938Z,16.70
2022-11-09T09:05:49.609Z,16.60
2022-11-09T09:08:22.029Z,15.90
2022-11-09T09:10:50.569Z,16.00
2022-11-09T09:13:22.570Z,16.30
2022-11-09T09:15:51.131Z,15.90
2022-11-09T09:18:19.669Z,15.50
2022-11-09T09:20:49.535Z,15.40
2022-11-09T09:23:18.026Z,15.60
2022-11-09T09:25:46.301Z,16.20
2022-11-09T09:28:14.523Z,16.70
2022-11-09T09:30:42.767Z,16.70
2022-11-09T09:33:11.959Z,17.20
2022-11-09T09:35:40.222Z,16.10
2022-11-09T09:38:09.825Z,16.10
2022-11-09T09:40:49.614Z,16.30
2022-11-09T09:43:31.056Z,16.70
2022-11-09T09:46:01.762Z,16.90
2022-11-09T09:48:39.144Z,16.90
2022-11-09T09:51:14.443Z,16.60
2022-11-09T09:53:50.882Z,17.20
2022-11-09T09:56:25.070Z,16.30
2022-11-09T09:59:01.017Z,16.30
2022-11-09T10:01:41.218Z,16.40
2022-11-09T10:04:19.695Z,16.80
2022-11-09T10:07:04.614Z,16.80
2022-11-09T10:09:54.467Z,17.40
2022-11-09T10:12:35.550Z,18.10
2022-11-09T10:15:20.933Z,17.60
2022-11-09T10:18:10.493Z,16.80
2022-11-09T10:20:53.542Z,16.40
2022-11-09T10:23:41.653Z,16.80
2022-11-09T10:26:20.077Z,16.30
2022-11-09T10:29:15.096Z,16.20
2022-11-09T10:31:45.543Z,16.60
2022-11-09T10:34:20.660Z,16.40
2022-11-09T10:37:00.855Z,16.70
2022-11-09T10:39:40.179Z,16.70
2022-11-09T10:42:12.595Z,16.90
2022-11-09T10:44:40.844Z,16.20
2022-11-09T10:47:12.322Z,16.10
2022-11-09T10:49:41.902Z,16.40
2022-11-09T10:52:43.033Z,16.50
2022-11-09T10:55:25.097Z,16.30
2022-11-09T10:57:59.867Z,16.20
2022-11-09T11:00:29.168Z,16.10
2022-11-09T11:02:57.855Z,16.10
2022-11-09T11:05:33.150Z,15.90
2022-11-09T11:08:35.515Z,16.00
2022-11-09T11:11:36.470Z,15.70
2022-11-09T11:14:22.662Z,16.00
2022-11-09T11:16:53.429Z,15.90
2022-11-09T11:19:38.380Z,16.20
2022-11-09T11:22:23.433Z,16.30
2022-11-09T11:24:58.260Z,16.10
2022-11-09T11:27:35.828Z,16.00
2022-11-09T11:30:12.664Z,16.30
2022-11-09T11:32:45.496Z,15.80
2022-11-09T11:35:22.573Z,16.10
2022-11-09T11:38:06.213Z,15.70
2022-11-09T11:40:53.143Z,15.90
2022-11-09T11:43:41.130Z,15.80
2022-11-09T11:46:19.086Z,16.20
2022-11-09T11:49:12.714Z,16.50
2022-11-09T11:51:54.192Z,16.80
2022-11-09T11:54:34.410Z,16.80
2022-11-09T11:57:11.852Z,16.50
2022-11-09T11:59:59.624Z,16.30
2022-11-09T12:03:33.729Z,16.70
2022-11-09T12:06:25.191Z,16.60
2022-11-09T12:09:12.881Z,16.70
2022-11-09T12:11:57.287Z,16.80
2022-11-09T12:14:38.284Z,16.60
2022-11-09T12:17:19.899Z,16.30
2022-11-09T12:20:22.152Z,16.10
2022-11-09T12:23:32.024Z,16.30
2022-11-09T12:26:23.833Z,16.60
2022-11-09T12:29:17.553Z,16.30
2022-11-09T12:32:03.900Z,16.30
2022-11-09T12:34:40.416Z,16.70
2022-11-09T12:37:14.617Z,16.60
2022-11-09T12:39:47.789Z,16.50
2022-11-09T12:42:24.450Z,16.50
2022-11-09T12:45:06.150Z,16.60
2022-11-09T12:47:41.779Z,16.50
2022-11-09T12:50:15.481Z,16.60
2022-11-09T12:52:48.636Z,16.50
2022-11-09T12:55:20.800Z,17.10
2022-11-09T12:57:49.549Z,17.30
2022-11-09T13:00:50.131Z,16.90
2022-11-09T13:03:26.051Z,16.80
2022-11-09T13:06:19.895Z,16.40
2022-11-09T13:09:02.424Z,16.70
2022-11-09T13:11:42.229Z,16.70
2022-11-09T13:14:37.163Z,16.80
2022-11-09T13:18:02.967Z,17.10
2022-11-09T13:21:00.689Z,17.00
2022-11-09T13:26:57.963Z,16.70
2022-11-09T13:29:28.647Z,16.70
2022-11-09T13:32:31.417Z,16.90
2022-11-09T13:35:01.294Z,17.10
2022-11-09T13:37:56.272Z,16.40
2022-11-09T13:40:47.086Z,16.10
2022-11-09T13:43:21.850Z,16.50
2022-11-09T13:45:54.154Z,16.80
2022-11-09T13:48:42.687Z,16.80
2022-11-09T13:51:15.144Z,16.40
2022-11-09T13:53:58.973Z,16.70
2022-11-09T13:56:35.195Z,16.60
2022-11-09T13:59:14.986Z,16.60
2022-11-09T14:01:55.064Z,16.60
2022-11-09T14:04:27.009Z,16.10
2022-11-09T14:07:03.782Z,16.80
2022-11-09T14:09:45.532Z,16.40
2022-11-09T14:12:42.093Z,16.40
2022-11-09T14:15:23.086Z,15.70
2022-11-09T14:18:08.921Z,15.70
2022-11-09T14:20:43.170Z,15.90
2022-11-09T14:23:19.036Z,16.20
2022-11-09T14:25:49.182Z,16.60
2022-11-09T14:28:25.561Z,17.30
2022-11-09T14:30:55.673Z,17.50
2022-11-09T14:33:27.640Z,16.70
2022-11-09T14:35:58.432Z,17.40
2022-11-09T14:38:31.090Z,16.60
2022-11-09T14:40:59.674Z,16.70
2022-11-09T14:43:30.916Z,16.80
2022-11-09T14:46:03.856Z,16.50
2022-11-09T14:48:34.119Z,16.50
2022-11-09T14:51:06.075Z,16.80
2022-11-09T14:53:37.630Z,16.20
2022-11-09T14:56:09.056Z,16.90
2022-11-09T14:58:43.474Z,16.90
2022-11-09T15:01:23.985Z,16.80
2022-11-09T15:04:14.203Z,17.30
2022-11-09T15:06:52.085Z,16.10
2022-11-09T15:09:24.502Z,16.40
2022-11-09T15:11:53.331Z,16.50
2022-11-09T15:14:29.211Z,15.90
2022-11-09T15:17:13.537Z,16.00
2022-11-09T15:19:51.894Z,16.50
2022-11-09T15:22:53.855Z,16.10
2022-11-09T15:25:27.957Z,15.90
2022-11-09T15:28:25.631Z,15.80
2022-11-09T15:31:19.431Z,15.10
2022-11-09T15:33:52.530Z,15.70
2022-11-09T15:36:29.583Z,15.70
2022-11-09T15:39:05.949Z,15.70
2022-11-09T15:41:34.201Z,16.50
2022-11-09T15:44:02.518Z,16.80
2022-11-09T15:46:36.162Z,16.70
2022-11-09T15:49:18.514Z,17.60
2022-11-09T15:51:47.495Z,17.00
2022-11-09T15:54:16.147Z,17.40
2022-11-09T15:56:44.746Z,17.90
2022-11-09T15:59:24.620Z,17.90
2022-11-09T16:01:53.090Z,17.90
2022-11-09T16:04:22.687Z,17.90
2022-11-09T16:06:50.984Z,18.30
2022-11-09T16:09:19.249Z,18.60
2022-11-09T16:11:50.779Z,17.90
2022-11-09T16:14:21.585Z,18.00
2022-11-09T16:16:50.037Z,18.00
2022-11-09T16:19:18.342Z,16.80
2022-11-09T16:21:47.988Z,16.60
2022-11-09T16:24:17.925Z,16.70
2022-11-09T16:26:46.550Z,16.80
2022-11-09T16:29:15.226Z,17.40
2022-11-09T16:31:52.244Z,17.50
2022-11-09T16:34:21.384Z,17.00
2022-11-09T16:36:56.582Z,17.40
2022-11-09T16:39:26.914Z,17.50
2022-11-09T16:41:56.595Z,16.90
2022-11-09T16:44:26.265Z,17.00
2022-11-09T16:46:54.543Z,16.30
2022-11-09T16:49:22.816Z,16.80
2022-11-09T16:51:52.424Z,16.80
2022-11-09T16:54:20.683Z,17.10
2022-11-09T16:56:49.207Z,16.80
2022-11-09T16:59:17.679Z,17.00
2022-11-09T17:01:52.649Z,17.30
2022-11-09T17:04:21.325Z,16.90
2022-11-09T17:06:51.877Z,16.30
2022-11-09T17:09:20.687Z,16.40
2022-11-09T17:11:49.109Z,16.60
2022-11-09T17:14:17.367Z,17.20
2022-11-09T17:16:47.208Z,16.90
2022-11-09T17:19:15.653Z,17.10
2022-11-09T17:21:43.929Z,17.20
2022-11-09T17:24:14.154Z,17.40
2022-11-09T17:26:42.419Z,17.40
2022-11-09T17:29:11.548Z,17.50
2022-11-09T17:31:39.770Z,17.30
2022-11-09T17:34:07.989Z,17.20
2022-11-09T17:37:02.241Z,15.90
2022-11-09T17:39:25.782Z,15.80
2022-11-09T17:41:54.181Z,16.10
2022-11-09T17:44:22.414Z,15.80
2022-11-09T17:46:50.670Z,16.60
2022-11-09T17:49:18.873Z,16.90
2022-11-09T17:51:47.132Z,16.70
2022-11-09T17:54:15.751Z,16.40
2022-11-09T17:56:45.450Z,15.90
2022-11-09T17:59:13.696Z,15.10
2022-11-09T18:01:42.215Z,15.50
2022-11-09T18:04:12.085Z,15.00
2022-11-09T18:06:41.247Z,15.20
2022-11-09T18:11:59.186Z,16.60
2022-11-09T18:14:27.416Z,16.60
2022-11-09T18:16:55.702Z,16.30
2022-11-09T18:19:23.971Z,15.90
2022-11-09T18:21:52.514Z,14.50
2022-11-09T18:24:20.768Z,14.40
2022-11-09T18:26:49.045Z,14.80
2022-11-09T18:29:18.650Z,14.40
2022-11-09T18:31:46.912Z,14.70
2022-11-09T18:34:15.377Z,15.50
2022-11-09T18:36:43.722Z,15.60
2022-11-09T18:39:11.944Z,14.70
2022-11-09T18:41:40.200Z,14.60
2022-11-09T18:44:09.489Z,14.70
2022-11-09T18:46:39.469Z,15.20
2022-11-09T18:49:13.026Z,14.50
2022-11-09T18:51:42.450Z,15.50
2022-11-09T18:54:10.720Z,15.90
2022-11-09T18:56:39.049Z,16.10
2022-11-09T18:59:07.329Z,16.00
2022-11-09T19:01:35.633Z,16.90
2022-11-09T19:04:05.280Z,17.10
2022-11-09T19:06:36.262Z,16.50
2022-11-09T19:09:22.192Z,16.30
2022-11-09T19:11:50.444Z,16.20
2022-11-09T19:14:18.678Z,15.70
2022-11-09T19:16:47.045Z,16.60
2022-11-09T19:19:17.247Z,16.20
2022-11-09T19:21:49.371Z,16.60
2022-11-09T19:24:21.080Z,16.60
2022-11-09T19:26:50.764Z,17.20
2022-11-09T19:29:19.393Z,16.50
2022-11-09T19:31:48.629Z,15.60
2022-11-09T19:34:21.677Z,15.10
2022-11-09T19:36:50.267Z,16.00
2022-11-09T19:39:19.076Z,16.10
2022-11-09T19:41:48.007Z,16.30
2022-11-09T19:44:18.080Z,15.30
2022-11-09T19:46:46.578Z,16.10
2022-11-09T19:49:14.913Z,16.20
2022-11-09T19:51:44.560Z,16.40
2022-11-09T19:54:14.433Z,15.80
2022-11-09T19:56:42.930Z,16.60
2022-11-09T19:59:16.134Z,17.10
2022-11-09T20:01:44.607Z,17.30
2022-11-09T20:04:12.882Z,16.50
2022-11-09T20:06:42.017Z,17.20
2022-11-09T20:09:12.046Z,16.90
2022-11-09T20:11:58.013Z,17.50
2022-11-09T20:14:26.232Z,16.80
2022-11-09T20:16:54.849Z,16.00
2022-11-09T20:19:23.789Z,16.40
2022-11-09T20:21:52.066Z,16.90
2022-11-09T20:24:21.649Z,16.80
2022-11-09T20:26:50.010Z,17.00
2022-11-09T20:29:18.286Z,17.20
2022-11-09T20:31:46.599Z,17.20
2022-11-09T20:34:14.824Z,16.90
2022-11-09T20:36:43.109Z,16.90
2022-11-09T20:39:11.366Z,16.80
2022-11-09T20:41:41.111Z,17.20
2022-11-09T20:44:09.333Z,17.40
2022-11-09T20:46:37.998Z,17.10
2022-11-09T20:49:06.637Z,16.40
2022-11-09T20:51:34.865Z,16.60
2022-11-09T20:54:07.243Z,17.10
2022-11-09T20:56:37.053Z,17.20
2022-11-09T20:59:06.986Z,17.10
2022-11-09T21:01:35.528Z,15.00
2022-11-09T21:04:04.260Z,15.80
2022-11-09T21:06:32.909Z,16.30
2022-11-09T21:09:01.926Z,16.80
2022-11-09T21:11:35.705Z,16.50
2022-11-09T21:14:04.459Z,16.80
2022-11-09T21:16:34.263Z,17.30
2022-11-09T21:19:02.576Z,15.90
2022-11-09T21:21:36.060Z,15.90
2022-11-09T21:24:23.218Z,15.90
2022-11-09T21:27:09.185Z,16.10
2022-11-09T21:29:52.532Z,15.50
2022-11-09T21:32:23.549Z,15.60
2022-11-09T21:34:52.893Z,16.50
2022-11-09T21:37:21.161Z,16.30
2022-11-09T21:39:49.421Z,16.90
2022-11-09T21:42:17.681Z,16.60
2022-11-09T21:44:45.967Z,17.00
2022-11-09T21:47:14.308Z,16.70
2022-11-09T21:49:43.956Z,16.90
2022-11-09T21:52:12.192Z,16.70
2022-11-09T21:54:40.663Z,16.80
2022-11-09T21:57:08.978Z,17.00
2022-11-09T21:59:37.287Z,17.10
2022-11-09T22:02:05.515Z,17.30
2022-11-09T22:04:33.769Z,16.80
2022-11-09T22:07:03.470Z,16.60
2022-11-09T22:09:50.651Z,16.30
2022-11-09T22:12:37.316Z,16.40
2022-11-09T22:15:23.966Z,16.00
2022-11-09T22:17:54.696Z,16.50
2022-11-09T22:20:40.976Z,16.60
2022-11-09T22:23:10.714Z,16.90
2022-11-09T22:25:42.708Z,16.80
2022-11-09T22:28:13.541Z,16.80
2022-11-09T22:30:41.774Z,16.40
2022-11-09T22:33:10.044Z,16.30
2022-11-09T22:35:38.363Z,16.30
2022-11-09T22:38:06.713Z,15.80
2022-11-09T22:40:36.820Z,16.50
2022-11-09T22:43:05.274Z,15.90
2022-11-09T22:45:35.169Z,16.50
2022-11-09T22:48:03.455Z,16.80
2022-11-09T22:50:31.914Z,16.90
2022-11-09T22:53:03.743Z,16.60
2022-11-09T22:55:32.412Z,16.40
2022-11-09T22:58:02.145Z,16.10
2022-11-09T23:00:30.382Z,16.10
2022-11-09T23:02:58.810Z,16.30
2022-11-09T23:05:27.053Z,16.10
2022-11-09T23:07:57.385Z,16.20
2022-11-09T23:10:25.682Z,16.20
2022-11-09T23:12:53.940Z,16.50
2022-11-09T23:15:23.559Z,16.30
2022-11-09T23:18:11.788Z,16.50
2022-11-09T23:20:40.559Z,16.80
2022-11-09T23:23:09.653Z,16.70
2022-11-09T23:25:56.923Z,16.70
2022-11-09T23:28:25.643Z,16.80
2022-11-09T23:30:55.262Z,16.90
2022-11-09T23:33:23.871Z,17.10
2022-11-09T23:35:52.376Z,16.40
2022-11-09T23:38:20.609Z,16.90
2022-11-09T23:40:49.550Z,17.00
2022-11-09T23:43:18.410Z,16.50
2022-11-09T23:45:47.460Z,15.70
2022-11-09T23:48:19.193Z,16.00
2022-11-09T23:50:48.763Z,16.50
2022-11-09T23:53:17.027Z,16.60
2022-11-09T23:55:45.411Z,16.70
2022-11-09T23:58:14.186Z,16.50
